createdAt,value
2023-06-29T00:01:37.208Z,56
2023-06-29T00:16:37.176Z,57
2023-06-29T00:31:37.057Z,57
2023-06-29T00:46:37.070Z,58
2023-06-29T01:01:36.964Z,58
2023-06-29T01:16:37.067Z,59
2023-06-29T01:31:37.010Z,60
2023-06-29T01:46:36.980Z,60
2023-06-29T02:01:36.955Z,60
2023-06-29T02:16:36.922Z,61
2023-06-29T02:31:36.919Z,61
2023-06-29T02:46:36.928Z,63
2023-06-29T03:01:36.909Z,63
2023-06-29T03:16:36.826Z,64
2023-06-29T03:31:36.744Z,64
2023-06-29T03:46:36.739Z,64
2023-06-29T04:01:36.685Z,64
2023-06-29T04:16:36.706Z,64
2023-06-29T04:31:36.605Z,64
2023-06-29T04:46:36.677Z,64
2023-06-29T05:01:36.668Z,62
2023-06-29T05:16:36.626Z,61
2023-06-29T05:31:36.588Z,60
2023-06-29T05:46:36.534Z,59
2023-06-29T06:01:36.591Z,58
2023-06-29T06:16:36.524Z,57
2023-06-29T06:31:36.396Z,56
2023-06-29T06:46:36.411Z,55
2023-06-29T07:01:36.364Z,54
2023-06-29T07:16:36.379Z,53
2023-06-29T07:31:36.363Z,52
2023-06-29T07:46:36.310Z,51
2023-06-29T08:01:36.258Z,51
2023-06-29T08:16:36.261Z,49
2023-06-29T08:31:36.271Z,48
2023-06-29T08:46:36.313Z,47
2023-06-29T09:01:36.168Z,49
2023-06-29T09:16:36.239Z,49
2023-06-29T09:31:36.143Z,48
2023-06-29T09:46:36.328Z,47
2023-06-29T10:01:36.079Z,46
2023-06-29T10:16:36.168Z,46
2023-06-29T10:31:36.060Z,44
2023-06-29T10:46:36.033Z,45
2023-06-29T11:01:35.968Z,44
2023-06-29T11:16:35.958Z,44
2023-06-29T11:31:35.927Z,45
2023-06-29T11:46:35.947Z,46
2023-06-29T12:01:35.804Z,46
2023-06-29T12:31:35.844Z,47
2023-06-29T12:46:35.793Z,47
2023-06-29T13:01:35.827Z,48
2023-06-29T13:16:35.775Z,49
2023-06-29T13:31:35.657Z,49
2023-06-29T13:46:35.664Z,49
2023-06-29T14:01:35.645Z,49
2023-06-29T14:16:35.577Z,48
2023-06-29T14:31:35.582Z,48
2023-06-29T14:46:35.667Z,48
2023-06-29T15:01:35.597Z,47
2023-06-29T15:16:35.489Z,47
2023-06-29T15:31:35.416Z,46
2023-06-29T15:46:35.456Z,44
2023-06-29T16:01:35.479Z,44
2023-06-29T16:16:35.491Z,44
2023-06-29T16:31:35.406Z,44
2023-06-29T16:46:35.466Z,43
2023-06-29T17:01:35.353Z,43
2023-06-29T17:16:35.473Z,44
2023-06-29T17:31:35.237Z,46
2023-06-29T17:46:36.187Z,48
2023-06-29T18:01:35.244Z,50
2023-06-29T18:16:35.282Z,52
2023-06-29T18:31:35.124Z,52
2023-06-29T18:46:35.135Z,53
2023-06-29T19:01:35.104Z,55
2023-06-29T19:16:35.089Z,57
2023-06-29T19:31:35.037Z,62
2023-06-29T19:46:35.108Z,67
2023-06-29T20:01:34.984Z,72
2023-06-29T20:16:34.996Z,76
2023-06-29T20:31:34.968Z,79
2023-06-29T20:46:34.930Z,81
2023-06-29T21:01:34.954Z,82
2023-06-29T21:16:35.025Z,84
2023-06-29T21:31:34.848Z,85
2023-06-29T21:46:34.782Z,85
2023-06-29T22:01:34.811Z,86
2023-06-29T22:16:34.816Z,86
2023-06-29T22:31:34.698Z,87
2023-06-29T22:46:34.728Z,87
2023-06-29T23:01:34.648Z,88
2023-06-29T23:16:34.731Z,88
2023-06-29T23:31:34.632Z,89
2023-06-29T23:46:34.642Z,89
